sensor_id;sensor_type;location;lat;lon;timestamp;pressure;altitude;pressure_sealevel;temperature;humidity
70411;BME280;57832;46.038;11.398;2023-03-14T00:01:50;96171.03;;;9.15;100.00
70411;BME280;57832;46.038;11.398;2023-03-14T00:04:16;96164.53;;;9.18;100.00
70411;BME280;57832;46.038;11.398;2023-03-14T00:06:41;96159.25;;;9.13;100.00
70411;BME280;57832;46.038;11.398;2023-03-14T00:09:07;96153.97;;;9.02;100.00
70411;BME280;57832;46.038;11.398;2023-03-14T00:11:33;96155.84;;;9.12;100.00
70411;BME280;57832;46.038;11.398;2023-03-14T00:13:58;96153.75;;;9.09;100.00
70411;BME280;57832;46.038;11.398;2023-03-14T00:16:26;96152.69;;;9.10;100.00
70411;BME280;57832;46.038;11.398;2023-03-14T00:18:51;96149.34;;;9.15;100.00
70411;BME280;57832;46.038;11.398;2023-03-14T00:21:17;96151.88;;;9.04;100.00
70411;BME280;57832;46.038;11.398;2023-03-14T00:23:43;96156.84;;;9.06;100.00
70411;BME280;57832;46.038;11.398;2023-03-14T00:26:15;96154.41;;;8.89;100.00
70411;BME280;57832;46.038;11.398;2023-03-14T00:28:41;96152.84;;;8.93;100.00
70411;BME280;57832;46.038;11.398;2023-03-14T00:31:09;96150.16;;;8.83;100.00
70411;BME280;57832;46.038;11.398;2023-03-14T00:33:35;96155.53;;;8.71;100.00
70411;BME280;57832;46.038;11.398;2023-03-14T00:36:03;96152.06;;;8.60;100.00
70411;BME280;57832;46.038;11.398;2023-03-14T00:38:30;96150.81;;;8.68;100.00
70411;BME280;57832;46.038;11.398;2023-03-14T00:40:56;96149.84;;;8.47;100.00
70411;BME280;57832;46.038;11.398;2023-03-14T00:43:22;96148.50;;;8.44;100.00
70411;BME280;57832;46.038;11.398;2023-03-14T00:45:52;96149.91;;;8.30;100.00
70411;BME280;57832;46.038;11.398;2023-03-14T00:48:18;96156.31;;;8.17;100.00
70411;BME280;57832;46.038;11.398;2023-03-14T00:50:45;96147.56;;;8.28;100.00
70411;BME280;57832;46.038;11.398;2023-03-14T00:53:11;96151.69;;;8.24;100.00
70411;BME280;57832;46.038;11.398;2023-03-14T00:55:38;96151.59;;;8.14;100.00
70411;BME280;57832;46.038;11.398;2023-03-14T00:58:04;96145.34;;;8.15;100.00
70411;BME280;57832;46.038;11.398;2023-03-14T01:00:30;96140.06;;;8.10;100.00
70411;BME280;57832;46.038;11.398;2023-03-14T01:02:55;96131.09;;;8.28;100.00
70411;BME280;57832;46.038;11.398;2023-03-14T01:05:22;96121.38;;;8.23;100.00
70411;BME280;57832;46.038;11.398;2023-03-14T01:07:47;96104.88;;;8.17;100.00
70411;BME280;57832;46.038;11.398;2023-03-14T01:10:13;96091.25;;;8.15;100.00
70411;BME280;57832;46.038;11.398;2023-03-14T01:12:39;96082.59;;;8.10;100.00
70411;BME280;57832;46.038;11.398;2023-03-14T01:15:05;96083.03;;;8.01;100.00
70411;BME280;57832;46.038;11.398;2023-03-14T01:17:30;96087.25;;;8.08;100.00
70411;BME280;57832;46.038;11.398;2023-03-14T01:19:56;96098.56;;;8.13;100.00
70411;BME280;57832;46.038;11.398;2023-03-14T01:22:21;96097.97;;;8.06;100.00
70411;BME280;57832;46.038;11.398;2023-03-14T01:24:47;96083.94;;;7.90;100.00
70411;BME280;57832;46.038;11.398;2023-03-14T01:27:12;96086.47;;;7.80;100.00
70411;BME280;57832;46.038;11.398;2023-03-14T01:29:38;96074.22;;;7.80;100.00
70411;BME280;57832;46.038;11.398;2023-03-14T01:32:04;96069.88;;;7.64;100.00
70411;BME280;57832;46.038;11.398;2023-03-14T01:34:29;96066.16;;;7.60;100.00
70411;BME280;57832;46.038;11.398;2023-03-14T01:36:55;96057.78;;;7.58;100.00
70411;BME280;57832;46.038;11.398;2023-03-14T01:39:20;96054.78;;;7.49;100.00
70411;BME280;57832;46.038;11.398;2023-03-14T01:41:46;96044.78;;;7.41;100.00
70411;BME280;57832;46.038;11.398;2023-03-14T01:44:12;96031.75;;;7.41;100.00
70411;BME280;57832;46.038;11.398;2023-03-14T01:46:43;96027.03;;;7.38;100.00
70411;BME280;57832;46.038;11.398;2023-03-14T01:49:22;96029.81;;;7.31;100.00
70411;BME280;57832;46.038;11.398;2023-03-14T01:52:06;96016.47;;;7.05;100.00
70411;BME280;57832;46.038;11.398;2023-03-14T01:54:39;96028.72;;;7.05;100.00
70411;BME280;57832;46.038;11.398;2023-03-14T01:57:11;96013.38;;;7.08;100.00
70411;BME280;57832;46.038;11.398;2023-03-14T01:59:40;96011.91;;;6.95;100.00
70411;BME280;57832;46.038;11.398;2023-03-14T02:02:09;96001.72;;;6.94;100.00
70411;BME280;57832;46.038;11.398;2023-03-14T02:04:38;96003.41;;;6.83;100.00
70411;BME280;57832;46.038;11.398;2023-03-14T02:07:32;95989.59;;;6.82;100.00
70411;BME280;57832;46.038;11.398;2023-03-14T02:09:59;95989.81;;;6.81;100.00
70411;BME280;57832;46.038;11.398;2023-03-14T02:12:27;96006.44;;;6.75;100.00
70411;BME280;57832;46.038;11.398;2023-03-14T02:14:53;95987.97;;;6.59;100.00
70411;BME280;57832;46.038;11.398;2023-03-14T02:17:19;95991.75;;;6.68;100.00
70411;BME280;57832;46.038;11.398;2023-03-14T02:20:10;95970.16;;;6.51;100.00
70411;BME280;57832;46.038;11.398;2023-03-14T02:22:39;95953.25;;;6.53;100.00
70411;BME280;57832;46.038;11.398;2023-03-14T02:27:32;95945.78;;;6.62;100.00
70411;BME280;57832;46.038;11.398;2023-03-14T02:32:31;95974.41;;;6.57;100.00
70411;BME280;57832;46.038;11.398;2023-03-14T02:34:59;95974.00;;;6.65;100.00
70411;BME280;57832;46.038;11.398;2023-03-14T02:38:07;95971.63;;;6.64;100.00
70411;BME280;57832;46.038;11.398;2023-03-14T02:40:22;95940.41;;;6.47;100.00
70411;BME280;57832;46.038;11.398;2023-03-14T02:42:48;95966.53;;;6.35;100.00
70411;BME280;57832;46.038;11.398;2023-03-14T02:47:43;95952.44;;;6.53;100.00
70411;BME280;57832;46.038;11.398;2023-03-14T02:50:13;95957.19;;;6.56;100.00
70411;BME280;57832;46.038;11.398;2023-03-14T02:52:39;95945.19;;;6.55;100.00
70411;BME280;57832;46.038;11.398;2023-03-14T02:55:05;95938.34;;;6.71;100.00
70411;BME280;57832;46.038;11.398;2023-03-14T02:57:31;95938.53;;;6.64;100.00
70411;BME280;57832;46.038;11.398;2023-03-14T03:00:00;95942.53;;;6.72;100.00
70411;BME280;57832;46.038;11.398;2023-03-14T03:02:27;95943.56;;;6.71;100.00
70411;BME280;57832;46.038;11.398;2023-03-14T03:04:53;95920.28;;;6.64;100.00
70411;BME280;57832;46.038;11.398;2023-03-14T03:07:18;95917.88;;;6.58;100.00
70411;BME280;57832;46.038;11.398;2023-03-14T03:09:45;95911.75;;;6.69;100.00
70411;BME280;57832;46.038;11.398;2023-03-14T03:12:10;95912.16;;;6.61;100.00
70411;BME280;57832;46.038;11.398;2023-03-14T03:14:36;95915.56;;;6.61;100.00
70411;BME280;57832;46.038;11.398;2023-03-14T03:17:03;95920.72;;;6.78;100.00
70411;BME280;57832;46.038;11.398;2023-03-14T03:19:29;95916.66;;;6.65;100.00
70411;BME280;57832;46.038;11.398;2023-03-14T03:21:54;95904.22;;;6.73;100.00
70411;BME280;57832;46.038;11.398;2023-03-14T03:24:20;95904.72;;;6.69;100.00
70411;BME280;57832;46.038;11.398;2023-03-14T03:26:45;95906.66;;;6.57;100.00
70411;BME280;57832;46.038;11.398;2023-03-14T03:29:11;95908.53;;;6.62;100.00
70411;BME280;57832;46.038;11.398;2023-03-14T03:31:37;95892.91;;;6.62;100.00
70411;BME280;57832;46.038;11.398;2023-03-14T03:34:03;95884.19;;;6.51;100.00
70411;BME280;57832;46.038;11.398;2023-03-14T03:36:28;95869.69;;;6.60;100.00
70411;BME280;57832;46.038;11.398;2023-03-14T03:38:54;95871.75;;;6.58;100.00
70411;BME280;57832;46.038;11.398;2023-03-14T03:41:20;95893.28;;;6.71;100.00
70411;BME280;57832;46.038;11.398;2023-03-14T03:43:45;95883.25;;;6.62;100.00
70411;BME280;57832;46.038;11.398;2023-03-14T03:46:11;95865.88;;;6.68;100.00
70411;BME280;57832;46.038;11.398;2023-03-14T03:48:36;95852.00;;;6.62;100.00
70411;BME280;57832;46.038;11.398;2023-03-14T03:51:02;95854.13;;;6.65;100.00
70411;BME280;57832;46.038;11.398;2023-03-14T03:53:28;95868.44;;;6.63;100.00
70411;BME280;57832;46.038;11.398;2023-03-14T03:55:53;95879.81;;;6.79;100.00
70411;BME280;57832;46.038;11.398;2023-03-14T03:58:19;95879.25;;;6.77;100.00
70411;BME280;57832;46.038;11.398;2023-03-14T04:00:45;95862.41;;;6.84;100.00
70411;BME280;57832;46.038;11.398;2023-03-14T04:03:10;95860.22;;;6.98;100.00
70411;BME280;57832;46.038;11.398;2023-03-14T04:05:36;95850.59;;;6.77;100.00
70411;BME280;57832;46.038;11.398;2023-03-14T04:08:02;95843.75;;;6.71;100.00
70411;BME280;57832;46.038;11.398;2023-03-14T04:10:28;95838.06;;;6.74;100.00
70411;BME280;57832;46.038;11.398;2023-03-14T04:12:54;95845.88;;;6.74;100.00
70411;BME280;57832;46.038;11.398;2023-03-14T04:15:19;95851.16;;;6.79;100.00
70411;BME280;57832;46.038;11.398;2023-03-14T04:17:45;95839.44;;;6.81;100.00
70411;BME280;57832;46.038;11.398;2023-03-14T04:20:11;95831.31;;;6.78;100.00
70411;BME280;57832;46.038;11.398;2023-03-14T04:22:38;95822.28;;;6.85;100.00
70411;BME280;57832;46.038;11.398;2023-03-14T04:25:05;95819.19;;;6.89;100.00
70411;BME280;57832;46.038;11.398;2023-03-14T04:27:30;95829.09;;;6.92;100.00
70411;BME280;57832;46.038;11.398;2023-03-14T04:29:56;95823.06;;;6.86;100.00
70411;BME280;57832;46.038;11.398;2023-03-14T04:32:22;95819.97;;;6.89;100.00
70411;BME280;57832;46.038;11.398;2023-03-14T04:34:47;95826.34;;;7.03;100.00
70411;BME280;57832;46.038;11.398;2023-03-14T04:37:13;95816.81;;;6.87;100.00
70411;BME280;57832;46.038;11.398;2023-03-14T04:39:38;95795.41;;;6.85;100.00
70411;BME280;57832;46.038;11.398;2023-03-14T04:42:04;95786.41;;;6.98;100.00
70411;BME280;57832;46.038;11.398;2023-03-14T04:44:29;95764.78;;;6.97;100.00
70411;BME280;57832;46.038;11.398;2023-03-14T04:46:54;95774.50;;;7.07;100.00
70411;BME280;57832;46.038;11.398;2023-03-14T04:49:20;95773.78;;;7.12;100.00
70411;BME280;57832;46.038;11.398;2023-03-14T04:51:46;95758.34;;;7.05;100.00
70411;BME280;57832;46.038;11.398;2023-03-14T04:54:11;95759.84;;;7.01;100.00
70411;BME280;57832;46.038;11.398;2023-03-14T04:56:37;95741.06;;;6.99;100.00
70411;BME280;57832;46.038;11.398;2023-03-14T04:59:03;95748.91;;;6.99;100.00
70411;BME280;57832;46.038;11.398;2023-03-14T05:01:29;95751.41;;;6.89;100.00
70411;BME280;57832;46.038;11.398;2023-03-14T05:03:54;95732.84;;;6.80;100.00
70411;BME280;57832;46.038;11.398;2023-03-14T05:06:20;95723.97;;;6.81;100.00
70411;BME280;57832;46.038;11.398;2023-03-14T05:08:45;95728.91;;;6.77;100.00
70411;BME280;57832;46.038;11.398;2023-03-14T05:11:11;95734.47;;;6.91;100.00
70411;BME280;57832;46.038;11.398;2023-03-14T05:13:38;95728.84;;;6.72;100.00
70411;BME280;57832;46.038;11.398;2023-03-14T05:16:06;95743.34;;;6.63;100.00
70411;BME280;57832;46.038;11.398;2023-03-14T05:18:32;95727.91;;;6.56;100.00
70411;BME280;57832;46.038;11.398;2023-03-14T05:20:58;95719.09;;;6.62;100.00
70411;BME280;57832;46.038;11.398;2023-03-14T05:23:23;95718.38;;;6.67;100.00
70411;BME280;57832;46.038;11.398;2023-03-14T05:25:49;95720.22;;;6.72;100.00
70411;BME280;57832;46.038;11.398;2023-03-14T05:28:14;95708.97;;;6.66;100.00
70411;BME280;57832;46.038;11.398;2023-03-14T05:30:40;95705.56;;;6.60;100.00
70411;BME280;57832;46.038;11.398;2023-03-14T05:33:05;95706.38;;;6.66;100.00
70411;BME280;57832;46.038;11.398;2023-03-14T05:35:31;95698.75;;;6.59;100.00
70411;BME280;57832;46.038;11.398;2023-03-14T05:37:56;95678.47;;;6.61;100.00
70411;BME280;57832;46.038;11.398;2023-03-14T05:40:22;95682.34;;;6.59;100.00
70411;BME280;57832;46.038;11.398;2023-03-14T05:42:47;95670.97;;;6.70;100.00
70411;BME280;57832;46.038;11.398;2023-03-14T05:45:13;95638.28;;;6.52;100.00
70411;BME280;57832;46.038;11.398;2023-03-14T05:47:39;95629.94;;;6.55;100.00
70411;BME280;57832;46.038;11.398;2023-03-14T05:50:04;95633.94;;;6.63;100.00
70411;BME280;57832;46.038;11.398;2023-03-14T05:52:30;95626.28;;;6.51;100.00
70411;BME280;57832;46.038;11.398;2023-03-14T05:54:56;95628.97;;;6.61;100.00
70411;BME280;57832;46.038;11.398;2023-03-14T05:57:22;95618.75;;;6.55;100.00
70411;BME280;57832;46.038;11.398;2023-03-14T05:59:48;95602.31;;;6.54;100.00
70411;BME280;57832;46.038;11.398;2023-03-14T06:02:14;95633.09;;;6.57;100.00
70411;BME280;57832;46.038;11.398;2023-03-14T06:04:40;95669.16;;;6.71;100.00
70411;BME280;57832;46.038;11.398;2023-03-14T06:07:05;95678.47;;;6.61;100.00
70411;BME280;57832;46.038;11.398;2023-03-14T06:09:31;95666.16;;;6.57;100.00
70411;BME280;57832;46.038;11.398;2023-03-14T06:11:56;95665.25;;;6.68;100.00
70411;BME280;57832;46.038;11.398;2023-03-14T06:14:22;95678.47;;;6.61;100.00
70411;BME280;57832;46.038;11.398;2023-03-14T06:16:47;95676.19;;;6.70;100.00
70411;BME280;57832;46.038;11.398;2023-03-14T06:19:14;95678.22;;;6.63;100.00
70411;BME280;57832;46.038;11.398;2023-03-14T06:21:40;95681.16;;;6.72;100.00
70411;BME280;57832;46.038;11.398;2023-03-14T06:24:06;95673.06;;;6.68;100.00
70411;BME280;57832;46.038;11.398;2023-03-14T06:26:31;95673.50;;;6.92;100.00
70411;BME280;57832;46.038;11.398;2023-03-14T06:28:57;95677.84;;;7.19;100.00
70411;BME280;57832;46.038;11.398;2023-03-14T06:31:24;95699.41;;;7.04;100.00
70411;BME280;57832;46.038;11.398;2023-03-14T06:33:50;95674.75;;;6.84;100.00
70411;BME280;57832;46.038;11.398;2023-03-14T06:36:15;95684.44;;;6.94;100.00
70411;BME280;57832;46.038;11.398;2023-03-14T06:38:41;95686.03;;;6.95;100.00
70411;BME280;57832;46.038;11.398;2023-03-14T06:41:07;95699.56;;;6.92;100.00
70411;BME280;57832;46.038;11.398;2023-03-14T06:43:33;95685.22;;;6.90;100.00
70411;BME280;57832;46.038;11.398;2023-03-14T06:45:59;95687.06;;;6.94;100.00
70411;BME280;57832;46.038;11.398;2023-03-14T06:48:24;95686.63;;;7.02;100.00
70411;BME280;57832;46.038;11.398;2023-03-14T06:50:50;95693.63;;;7.02;100.00
70411;BME280;57832;46.038;11.398;2023-03-14T06:53:16;95694.75;;;7.11;100.00
70411;BME280;57832;46.038;11.398;2023-03-14T06:55:41;95707.75;;;7.06;100.00
70411;BME280;57832;46.038;11.398;2023-03-14T06:58:08;95685.03;;;7.01;100.00
70411;BME280;57832;46.038;11.398;2023-03-14T07:00:34;95682.94;;;6.98;100.00
70411;BME280;57832;46.038;11.398;2023-03-14T07:03:00;95686.53;;;6.92;100.00
70411;BME280;57832;46.038;11.398;2023-03-14T07:05:26;95691.53;;;6.99;100.00
70411;BME280;57832;46.038;11.398;2023-03-14T07:07:51;95681.38;;;6.97;100.00
70411;BME280;57832;46.038;11.398;2023-03-14T07:10:17;95672.69;;;6.92;100.00
70411;BME280;57832;46.038;11.398;2023-03-14T07:12:43;95654.00;;;7.00;100.00
70411;BME280;57832;46.038;11.398;2023-03-14T07:15:08;95642.56;;;7.06;100.00
70411;BME280;57832;46.038;11.398;2023-03-14T07:17:34;95639.59;;;7.30;100.00
70411;BME280;57832;46.038;11.398;2023-03-14T07:19:59;95652.59;;;7.25;100.00
70411;BME280;57832;46.038;11.398;2023-03-14T07:22:26;95656.22;;;7.18;100.00
70411;BME280;57832;46.038;11.398;2023-03-14T07:24:51;95652.00;;;7.12;100.00
70411;BME280;57832;46.038;11.398;2023-03-14T07:27:17;95662.06;;;7.36;100.00
70411;BME280;57832;46.038;11.398;2023-03-14T07:29:42;95657.66;;;7.42;100.00
70411;BME280;57832;46.038;11.398;2023-03-14T07:32:08;95652.34;;;7.26;100.00
70411;BME280;57832;46.038;11.398;2023-03-14T07:34:34;95651.88;;;7.40;100.00
70411;BME280;57832;46.038;11.398;2023-03-14T07:37:00;95645.03;;;7.76;100.00
70411;BME280;57832;46.038;11.398;2023-03-14T07:39:25;95631.81;;;8.14;100.00
70411;BME280;57832;46.038;11.398;2023-03-14T07:41:51;95628.81;;;7.74;100.00
70411;BME280;57832;46.038;11.398;2023-03-14T07:44:17;95627.03;;;7.90;100.00
70411;BME280;57832;46.038;11.398;2023-03-14T07:46:42;95639.47;;;8.51;100.00
70411;BME280;57832;46.038;11.398;2023-03-14T07:49:08;95621.97;;;8.62;100.00
70411;BME280;57832;46.038;11.398;2023-03-14T07:51:33;95607.59;;;8.65;100.00
70411;BME280;57832;46.038;11.398;2023-03-14T07:53:59;95616.50;;;8.69;100.00
70411;BME280;57832;46.038;11.398;2023-03-14T07:56:24;95629.28;;;8.60;100.00
70411;BME280;57832;46.038;11.398;2023-03-14T07:58:50;95626.09;;;8.27;100.00
70411;BME280;57832;46.038;11.398;2023-03-14T08:01:15;95628.41;;;8.24;100.00
70411;BME280;57832;46.038;11.398;2023-03-14T08:03:41;95628.19;;;8.30;100.00
70411;BME280;57832;46.038;11.398;2023-03-14T08:06:06;95634.38;;;8.03;100.00
70411;BME280;57832;46.038;11.398;2023-03-14T08:08:32;95632.31;;;8.00;100.00
70411;BME280;57832;46.038;11.398;2023-03-14T08:11:15;95630.75;;;8.10;100.00
70411;BME280;57832;46.038;11.398;2023-03-14T08:13:41;95634.41;;;8.09;100.00
70411;BME280;57832;46.038;11.398;2023-03-14T08:16:07;95642.22;;;7.93;100.00
70411;BME280;57832;46.038;11.398;2023-03-14T08:18:33;95637.75;;;7.89;100.00
70411;BME280;57832;46.038;11.398;2023-03-14T08:20:58;95634.66;;;7.92;100.00
70411;BME280;57832;46.038;11.398;2023-03-14T08:23:24;95630.97;;;7.93;100.00
70411;BME280;57832;46.038;11.398;2023-03-14T08:25:50;95645.09;;;7.92;100.00
70411;BME280;57832;46.038;11.398;2023-03-14T08:28:17;95641.69;;;7.91;100.00
70411;BME280;57832;46.038;11.398;2023-03-14T08:30:42;95636.72;;;7.95;100.00
70411;BME280;57832;46.038;11.398;2023-03-14T08:33:08;95633.91;;;8.07;100.00
70411;BME280;57832;46.038;11.398;2023-03-14T08:35:33;95632.59;;;8.09;100.00
70411;BME280;57832;46.038;11.398;2023-03-14T08:37:59;95635.47;;;8.13;100.00
70411;BME280;57832;46.038;11.398;2023-03-14T08:40:25;95633.41;;;8.20;100.00
70411;BME280;57832;46.038;11.398;2023-03-14T08:42:50;95639.13;;;8.07;100.00
70411;BME280;57832;46.038;11.398;2023-03-14T08:45:16;95648.50;;;8.02;100.00
70411;BME280;57832;46.038;11.398;2023-03-14T08:47:43;95637.78;;;7.99;100.00
70411;BME280;57832;46.038;11.398;2023-03-14T08:50:10;95645.09;;;8.02;100.00
70411;BME280;57832;46.038;11.398;2023-03-14T08:52:35;95643.78;;;7.99;100.00
70411;BME280;57832;46.038;11.398;2023-03-14T08:55:03;95656.03;;;7.94;100.00
70411;BME280;57832;46.038;11.398;2023-03-14T08:57:29;95660.00;;;8.07;100.00
70411;BME280;57832;46.038;11.398;2023-03-14T08:59:55;95647.22;;;8.15;100.00
70411;BME280;57832;46.038;11.398;2023-03-14T09:02:22;95655.28;;;7.98;100.00
70411;BME280;57832;46.038;11.398;2023-03-14T09:04:50;95650.88;;;8.04;100.00
70411;BME280;57832;46.038;11.398;2023-03-14T09:07:16;95648.78;;;8.16;100.00
70411;BME280;57832;46.038;11.398;2023-03-14T09:09:41;95658.16;;;8.07;100.00
70411;BME280;57832;46.038;11.398;2023-03-14T09:12:07;95655.81;;;8.06;100.00
70411;BME280;57832;46.038;11.398;2023-03-14T09:14:33;95638.88;;;8.24;100.00
70411;BME280;57832;46.038;11.398;2023-03-14T09:16:58;95644.88;;;8.14;100.00
70411;BME280;57832;46.038;11.398;2023-03-14T09:19:24;95648.03;;;8.21;100.00
70411;BME280;57832;46.038;11.398;2023-03-14T09:21:49;95644.69;;;8.41;100.00
70411;BME280;57832;46.038;11.398;2023-03-14T09:24:16;95648.63;;;8.75;100.00
70411;BME280;57832;46.038;11.398;2023-03-14T09:26:44;95636.88;;;8.77;100.00
70411;BME280;57832;46.038;11.398;2023-03-14T09:29:10;95627.97;;;8.83;100.00
70411;BME280;57832;46.038;11.398;2023-03-14T09:31:36;95632.66;;;9.07;100.00
70411;BME280;57832;46.038;11.398;2023-03-14T09:34:01;95623.22;;;9.27;100.00
70411;BME280;57832;46.038;11.398;2023-03-14T09:36:27;95617.19;;;9.26;100.00
70411;BME280;57832;46.038;11.398;2023-03-14T09:38:53;95609.25;;;9.62;100.00
70411;BME280;57832;46.038;11.398;2023-03-14T09:41:27;95592.63;;;10.27;100.00
70411;BME280;57832;46.038;11.398;2023-03-14T09:44:25;95589.00;;;10.92;100.00
70411;BME280;57832;46.038;11.398;2023-03-14T09:46:53;95579.06;;;10.60;100.00
70411;BME280;57832;46.038;11.398;2023-03-14T09:49:25;95574.53;;;11.67;100.00
70411;BME280;57832;46.038;11.398;2023-03-14T09:51:55;95559.88;;;12.04;100.00
70411;BME280;57832;46.038;11.398;2023-03-14T09:56:52;95566.66;;;12.11;100.00
70411;BME280;57832;46.038;11.398;2023-03-14T09:59:18;95562.38;;;12.15;100.00
70411;BME280;57832;46.038;11.398;2023-03-14T10:01:43;95561.47;;;12.06;100.00
70411;BME280;57832;46.038;11.398;2023-03-14T10:04:15;95555.38;;;12.90;100.00
70411;BME280;57832;46.038;11.398;2023-03-14T10:06:42;95547.25;;;13.19;100.00
70411;BME280;57832;46.038;11.398;2023-03-14T10:09:17;95548.97;;;13.24;100.00
70411;BME280;57832;46.038;11.398;2023-03-14T10:11:44;95541.91;;;15.11;100.00
70411;BME280;57832;46.038;11.398;2023-03-14T10:14:10;95546.44;;;13.61;100.00
70411;BME280;57832;46.038;11.398;2023-03-14T10:16:44;95546.00;;;12.70;100.00
70411;BME280;57832;46.038;11.398;2023-03-14T10:19:12;95548.25;;;12.77;100.00
70411;BME280;57832;46.038;11.398;2023-03-14T10:21:41;95537.06;;;12.85;100.00
70411;BME280;57832;46.038;11.398;2023-03-14T10:24:10;95537.72;;;13.74;100.00
70411;BME280;57832;46.038;11.398;2023-03-14T10:26:36;95518.94;;;15.12;100.00
70411;BME280;57832;46.038;11.398;2023-03-14T10:29:12;95514.69;;;15.60;100.00
70411;BME280;57832;46.038;11.398;2023-03-14T10:34:17;95518.44;;;16.46;100.00
70411;BME280;57832;46.038;11.398;2023-03-14T10:36:43;95501.66;;;16.25;100.00
70411;BME280;57832;46.038;11.398;2023-03-14T10:41:52;95504.88;;;18.61;100.00
70411;BME280;57832;46.038;11.398;2023-03-14T10:44:23;95497.38;;;18.29;100.00
70411;BME280;57832;46.038;11.398;2023-03-14T10:46:59;95486.19;;;18.82;100.00
70411;BME280;57832;46.038;11.398;2023-03-14T10:49:36;95487.50;;;17.24;100.00
70411;BME280;57832;46.038;11.398;2023-03-14T10:52:19;95482.03;;;16.26;100.00
70411;BME280;57832;46.038;11.398;2023-03-14T10:55:09;95486.69;;;16.37;100.00
70411;BME280;57832;46.038;11.398;2023-03-14T10:57:41;95476.91;;;15.59;100.00
70411;BME280;57832;46.038;11.398;2023-03-14T11:00:19;95469.69;;;15.16;100.00
70411;BME280;57832;46.038;11.398;2023-03-14T11:05:34;95464.97;;;13.87;100.00
70411;BME280;57832;46.038;11.398;2023-03-14T11:08:42;95463.09;;;15.62;100.00
70411;BME280;57832;46.038;11.398;2023-03-14T11:11:18;95459.78;;;16.83;100.00
70411;BME280;57832;46.038;11.398;2023-03-14T11:14:12;95450.59;;;16.80;100.00
70411;BME280;57832;46.038;11.398;2023-03-14T11:17:05;95457.81;;;16.06;100.00
70411;BME280;57832;46.038;11.398;2023-03-14T11:19:43;95453.69;;;16.91;100.00
70411;BME280;57832;46.038;11.398;2023-03-14T11:25:14;95450.81;;;17.77;100.00
70411;BME280;57832;46.038;11.398;2023-03-14T11:27:58;95452.19;;;17.62;100.00
70411;BME280;57832;46.038;11.398;2023-03-14T11:30:43;95441.81;;;18.58;100.00
70411;BME280;57832;46.038;11.398;2023-03-14T11:33:20;95442.19;;;18.35;100.00
70411;BME280;57832;46.038;11.398;2023-03-14T11:35:59;95432.78;;;19.08;100.00
70411;BME280;57832;46.038;11.398;2023-03-14T11:40:57;95418.28;;;18.93;100.00
70411;BME280;57832;46.038;11.398;2023-03-14T11:43:32;95414.81;;;19.30;100.00
70411;BME280;57832;46.038;11.398;2023-03-14T11:46:09;95413.16;;;20.23;100.00
70411;BME280;57832;46.038;11.398;2023-03-14T11:48:42;95408.38;;;20.28;100.00
70411;BME280;57832;46.038;11.398;2023-03-14T11:51:17;95398.56;;;20.16;100.00
70411;BME280;57832;46.038;11.398;2023-03-14T11:59:03;95395.56;;;18.71;100.00
70411;BME280;57832;46.038;11.398;2023-03-14T12:01:48;95387.59;;;20.18;100.00
70411;BME280;57832;46.038;11.398;2023-03-14T12:06:54;95374.22;;;19.74;100.00
70411;BME280;57832;46.038;11.398;2023-03-14T12:09:22;95371.53;;;20.78;100.00
70411;BME280;57832;46.038;11.398;2023-03-14T12:11:51;95357.97;;;20.35;100.00
70411;BME280;57832;46.038;11.398;2023-03-14T12:16:58;95347.31;;;20.67;100.00
70411;BME280;57832;46.038;11.398;2023-03-14T12:19:25;95356.56;;;20.26;100.00
70411;BME280;57832;46.038;11.398;2023-03-14T12:21:59;95350.72;;;20.68;100.00
70411;BME280;57832;46.038;11.398;2023-03-14T12:24:30;95342.91;;;19.95;100.00
70411;BME280;57832;46.038;11.398;2023-03-14T12:27:01;95347.72;;;20.37;100.00
70411;BME280;57832;46.038;11.398;2023-03-14T12:29:27;95339.34;;;20.19;100.00
70411;BME280;57832;46.038;11.398;2023-03-14T12:32:07;95334.69;;;21.00;100.00
70411;BME280;57832;46.038;11.398;2023-03-14T12:34:42;95339.31;;;21.03;100.00
70411;BME280;57832;46.038;11.398;2023-03-14T12:37:35;95339.94;;;20.77;100.00
70411;BME280;57832;46.038;11.398;2023-03-14T12:42:43;95333.72;;;21.63;100.00
70411;BME280;57832;46.038;11.398;2023-03-14T12:51:05;95326.97;;;20.95;100.00
70411;BME280;57832;46.038;11.398;2023-03-14T13:05:12;95304.38;;;17.04;100.00
70411;BME280;57832;46.038;11.398;2023-03-14T13:15:38;95298.34;;;19.19;100.00
70411;BME280;57832;46.038;11.398;2023-03-14T13:18:37;95291.41;;;19.02;100.00
70411;BME280;57832;46.038;11.398;2023-03-14T13:21:21;95292.13;;;18.62;100.00
70411;BME280;57832;46.038;11.398;2023-03-14T13:24:07;95283.66;;;19.38;100.00
70411;BME280;57832;46.038;11.398;2023-03-14T13:26:45;95278.66;;;19.36;100.00
70411;BME280;57832;46.038;11.398;2023-03-14T13:29:22;95273.19;;;18.88;100.00
70411;BME280;57832;46.038;11.398;2023-03-14T13:31:53;95278.41;;;19.42;100.00
70411;BME280;57832;46.038;11.398;2023-03-14T13:34:20;95272.44;;;19.45;100.00
70411;BME280;57832;46.038;11.398;2023-03-14T13:36:46;95270.97;;;19.19;100.00
70411;BME280;57832;46.038;11.398;2023-03-14T13:39:18;95271.94;;;19.55;100.00
70411;BME280;57832;46.038;11.398;2023-03-14T13:41:45;95260.31;;;19.76;100.00
70411;BME280;57832;46.038;11.398;2023-03-14T13:44:30;95257.03;;;19.66;100.00
70411;BME280;57832;46.038;11.398;2023-03-14T13:46:58;95258.81;;;19.46;100.00
70411;BME280;57832;46.038;11.398;2023-03-14T13:49:25;95261.44;;;19.30;100.00
70411;BME280;57832;46.038;11.398;2023-03-14T13:51:52;95254.81;;;18.83;100.00
70411;BME280;57832;46.038;11.398;2023-03-14T13:54:19;95248.84;;;19.43;100.00
70411;BME280;57832;46.038;11.398;2023-03-14T13:56:46;95250.50;;;19.19;100.00